sensor_id;sensor_type;location;lat;lon;timestamp;temperature;humidity
14934;DHT22;7560;51.364;12.384;2022-10-31T00:04:16;13.00;99.90
14934;DHT22;7560;51.364;12.384;2022-10-31T00:09:18;13.00;99.90
14934;DHT22;7560;51.364;12.384;2022-10-31T00:14:20;13.00;99.90
14934;DHT22;7560;51.364;12.384;2022-10-31T00:19:21;12.90;99.90
14934;DHT22;7560;51.364;12.384;2022-10-31T00:24:23;12.80;99.90
14934;DHT22;7560;51.364;12.384;2022-10-31T00:29:25;12.90;99.90
14934;DHT22;7560;51.364;12.384;2022-10-31T00:34:26;13.00;99.90
14934;DHT22;7560;51.364;12.384;2022-10-31T00:39:28;12.90;99.90
14934;DHT22;7560;51.364;12.384;2022-10-31T00:44:30;12.80;99.90
14934;DHT22;7560;51.364;12.384;2022-10-31T00:49:31;12.70;99.90
14934;DHT22;7560;51.364;12.384;2022-10-31T00:54:33;12.60;99.90
14934;DHT22;7560;51.364;12.384;2022-10-31T00:59:35;12.60;99.90
14934;DHT22;7560;51.364;12.384;2022-10-31T01:04:36;12.60;99.90
14934;DHT22;7560;51.364;12.384;2022-10-31T01:09:38;12.50;99.90
14934;DHT22;7560;51.364;12.384;2022-10-31T01:14:43;12.50;99.90
14934;DHT22;7560;51.364;12.384;2022-10-31T01:19:46;12.40;99.90
14934;DHT22;7560;51.364;12.384;2022-10-31T01:24:47;12.40;99.90
14934;DHT22;7560;51.364;12.384;2022-10-31T01:29:49;12.40;99.90
14934;DHT22;7560;51.364;12.384;2022-10-31T01:34:51;12.30;99.90
14934;DHT22;7560;51.364;12.384;2022-10-31T01:39:52;12.30;99.90
14934;DHT22;7560;51.364;12.384;2022-10-31T01:44:57;12.30;99.90
14934;DHT22;7560;51.364;12.384;2022-10-31T01:50:01;12.30;99.90
14934;DHT22;7560;51.364;12.384;2022-10-31T01:55:28;12.30;99.90
14934;DHT22;7560;51.364;12.384;2022-10-31T02:00:31;12.30;99.90
14934;DHT22;7560;51.364;12.384;2022-10-31T02:05:33;12.20;99.90
14934;DHT22;7560;51.364;12.384;2022-10-31T02:10:36;12.30;99.90
14934;DHT22;7560;51.364;12.384;2022-10-31T02:15:39;12.30;99.90
14934;DHT22;7560;51.364;12.384;2022-10-31T02:31:43;12.10;99.90
14934;DHT22;7560;51.364;12.384;2022-10-31T02:36:57;12.10;99.90
14934;DHT22;7560;51.364;12.384;2022-10-31T02:42:14;12.10;99.90
14934;DHT22;7560;51.364;12.384;2022-10-31T02:47:21;12.10;99.90
14934;DHT22;7560;51.364;12.384;2022-10-31T02:52:26;12.10;99.90
14934;DHT22;7560;51.364;12.384;2022-10-31T02:57:33;12.00;99.90
14934;DHT22;7560;51.364;12.384;2022-10-31T03:08:06;11.90;99.90
14934;DHT22;7560;51.364;12.384;2022-10-31T03:13:24;11.90;99.90
14934;DHT22;7560;51.364;12.384;2022-10-31T03:18:40;11.90;99.90
14934;DHT22;7560;51.364;12.384;2022-10-31T03:23:45;11.80;99.90
14934;DHT22;7560;51.364;12.384;2022-10-31T03:28:57;11.70;99.90
14934;DHT22;7560;51.364;12.384;2022-10-31T03:34:01;11.70;99.90
14934;DHT22;7560;51.364;12.384;2022-10-31T03:39:06;11.60;99.90
14934;DHT22;7560;51.364;12.384;2022-10-31T03:44:17;11.60;99.90
14934;DHT22;7560;51.364;12.384;2022-10-31T03:49:20;11.60;99.90
14934;DHT22;7560;51.364;12.384;2022-10-31T03:54:33;11.50;99.90
14934;DHT22;7560;51.364;12.384;2022-10-31T04:00:05;11.50;99.90
14934;DHT22;7560;51.364;12.384;2022-10-31T04:05:10;11.50;99.90
14934;DHT22;7560;51.364;12.384;2022-10-31T04:10:13;11.40;99.90
14934;DHT22;7560;51.364;12.384;2022-10-31T04:15:16;11.50;99.90
14934;DHT22;7560;51.364;12.384;2022-10-31T04:20:28;11.50;99.90
14934;DHT22;7560;51.364;12.384;2022-10-31T04:25:30;11.40;99.90
14934;DHT22;7560;51.364;12.384;2022-10-31T04:30:32;11.40;99.90
14934;DHT22;7560;51.364;12.384;2022-10-31T04:35:33;11.40;99.90
14934;DHT22;7560;51.364;12.384;2022-10-31T04:40:35;11.40;99.90
14934;DHT22;7560;51.364;12.384;2022-10-31T04:45:37;11.30;99.90
14934;DHT22;7560;51.364;12.384;2022-10-31T04:50:39;11.30;99.90
14934;DHT22;7560;51.364;12.384;2022-10-31T04:55:41;11.30;99.90
14934;DHT22;7560;51.364;12.384;2022-10-31T05:00:42;11.30;99.90
14934;DHT22;7560;51.364;12.384;2022-10-31T05:05:44;11.20;99.90
14934;DHT22;7560;51.364;12.384;2022-10-31T05:10:46;11.20;99.90
14934;DHT22;7560;51.364;12.384;2022-10-31T05:15:47;11.20;99.90
14934;DHT22;7560;51.364;12.384;2022-10-31T05:20:50;11.20;99.90
14934;DHT22;7560;51.364;12.384;2022-10-31T05:25:52;11.20;99.90
14934;DHT22;7560;51.364;12.384;2022-10-31T05:30:53;11.10;99.90
14934;DHT22;7560;51.364;12.384;2022-10-31T05:35:55;11.10;99.90
14934;DHT22;7560;51.364;12.384;2022-10-31T05:40:57;11.10;99.90
14934;DHT22;7560;51.364;12.384;2022-10-31T05:45:59;11.10;99.90
14934;DHT22;7560;51.364;12.384;2022-10-31T05:51:01;11.00;99.90
14934;DHT22;7560;51.364;12.384;2022-10-31T05:56:02;11.10;99.90
14934;DHT22;7560;51.364;12.384;2022-10-31T06:01:07;11.00;99.90
14934;DHT22;7560;51.364;12.384;2022-10-31T06:06:09;11.00;99.90
14934;DHT22;7560;51.364;12.384;2022-10-31T06:11:11;11.00;99.90
14934;DHT22;7560;51.364;12.384;2022-10-31T06:16:12;11.00;99.90
14934;DHT22;7560;51.364;12.384;2022-10-31T06:21:14;11.00;99.90
14934;DHT22;7560;51.364;12.384;2022-10-31T06:26:19;11.00;99.90
14934;DHT22;7560;51.364;12.384;2022-10-31T06:31:21;11.00;99.90
14934;DHT22;7560;51.364;12.384;2022-10-31T06:36:23;11.10;99.90
14934;DHT22;7560;51.364;12.384;2022-10-31T06:41:24;11.20;99.90
14934;DHT22;7560;51.364;12.384;2022-10-31T06:46:26;11.20;99.90
14934;DHT22;7560;51.364;12.384;2022-10-31T06:51:28;11.30;99.90
14934;DHT22;7560;51.364;12.384;2022-10-31T06:56:29;11.40;99.90
14934;DHT22;7560;51.364;12.384;2022-10-31T07:01:31;11.50;99.90
14934;DHT22;7560;51.364;12.384;2022-10-31T07:06:33;11.60;99.90
14934;DHT22;7560;51.364;12.384;2022-10-31T07:11:34;11.60;99.90
14934;DHT22;7560;51.364;12.384;2022-10-31T07:16:36;11.70;99.90
14934;DHT22;7560;51.364;12.384;2022-10-31T07:21:38;11.80;99.90
14934;DHT22;7560;51.364;12.384;2022-10-31T07:26:40;11.90;99.90
14934;DHT22;7560;51.364;12.384;2022-10-31T07:31:46;12.00;99.90
14934;DHT22;7560;51.364;12.384;2022-10-31T07:36:47;12.00;99.90
14934;DHT22;7560;51.364;12.384;2022-10-31T07:41:49;12.10;99.90
14934;DHT22;7560;51.364;12.384;2022-10-31T07:46:52;12.20;99.90
14934;DHT22;7560;51.364;12.384;2022-10-31T07:51:54;12.30;99.90
14934;DHT22;7560;51.364;12.384;2022-10-31T07:56:56;12.40;99.90
14934;DHT22;7560;51.364;12.384;2022-10-31T08:01:58;12.50;99.90
14934;DHT22;7560;51.364;12.384;2022-10-31T08:07:00;12.60;99.90
14934;DHT22;7560;51.364;12.384;2022-10-31T08:12:01;12.80;99.90
14934;DHT22;7560;51.364;12.384;2022-10-31T08:17:03;12.90;99.90
14934;DHT22;7560;51.364;12.384;2022-10-31T08:22:05;13.10;99.90
14934;DHT22;7560;51.364;12.384;2022-10-31T08:27:06;13.20;99.90
14934;DHT22;7560;51.364;12.384;2022-10-31T08:32:08;13.40;99.90
14934;DHT22;7560;51.364;12.384;2022-10-31T08:37:10;13.50;99.90
14934;DHT22;7560;51.364;12.384;2022-10-31T08:42:12;13.70;99.90
14934;DHT22;7560;51.364;12.384;2022-10-31T08:47:14;13.80;99.90
14934;DHT22;7560;51.364;12.384;2022-10-31T08:52:15;14.00;99.90
14934;DHT22;7560;51.364;12.384;2022-10-31T08:57:17;14.10;99.90
14934;DHT22;7560;51.364;12.384;2022-10-31T09:02:19;14.30;99.90
14934;DHT22;7560;51.364;12.384;2022-10-31T09:07:20;14.50;99.90
14934;DHT22;7560;51.364;12.384;2022-10-31T09:12:22;14.70;99.90
14934;DHT22;7560;51.364;12.384;2022-10-31T09:17:25;14.80;99.90
14934;DHT22;7560;51.364;12.384;2022-10-31T09:22:28;15.00;99.90
14934;DHT22;7560;51.364;12.384;2022-10-31T09:27:29;15.10;99.90
14934;DHT22;7560;51.364;12.384;2022-10-31T09:32:31;15.30;99.90
14934;DHT22;7560;51.364;12.384;2022-10-31T09:37:33;15.40;99.90
14934;DHT22;7560;51.364;12.384;2022-10-31T09:43:41;15.60;99.90
14934;DHT22;7560;51.364;12.384;2022-10-31T09:53:40;15.60;99.90
14934;DHT22;7560;51.364;12.384;2022-10-31T09:58:46;15.70;99.90
14934;DHT22;7560;51.364;12.384;2022-10-31T10:03:50;15.80;99.90
14934;DHT22;7560;51.364;12.384;2022-10-31T10:08:54;15.80;99.90
14934;DHT22;7560;51.364;12.384;2022-10-31T10:30:23;16.00;99.90
14934;DHT22;7560;51.364;12.384;2022-10-31T10:35:31;16.20;99.90
14934;DHT22;7560;51.364;12.384;2022-10-31T10:40:33;16.20;99.90
14934;DHT22;7560;51.364;12.384;2022-10-31T10:45:37;16.30;99.90
14934;DHT22;7560;51.364;12.384;2022-10-31T10:50:57;16.40;99.90
14934;DHT22;7560;51.364;12.384;2022-10-31T10:56:15;16.30;99.90
14934;DHT22;7560;51.364;12.384;2022-10-31T11:01:18;16.30;99.90
14934;DHT22;7560;51.364;12.384;2022-10-31T11:06:23;16.30;99.90
14934;DHT22;7560;51.364;12.384;2022-10-31T11:11:29;16.40;99.90
14934;DHT22;7560;51.364;12.384;2022-10-31T11:16:40;16.50;99.90
14934;DHT22;7560;51.364;12.384;2022-10-31T11:21:43;16.60;99.90
14934;DHT22;7560;51.364;12.384;2022-10-31T11:27:16;16.70;99.90
14934;DHT22;7560;51.364;12.384;2022-10-31T11:32:23;16.80;99.90
14934;DHT22;7560;51.364;12.384;2022-10-31T11:37:30;16.90;99.90
14934;DHT22;7560;51.364;12.384;2022-10-31T11:42:41;16.90;99.90
14934;DHT22;7560;51.364;12.384;2022-10-31T11:47:47;17.00;99.90
14934;DHT22;7560;51.364;12.384;2022-10-31T11:52:50;17.10;99.90
14934;DHT22;7560;51.364;12.384;2022-10-31T11:57:53;17.20;99.90
14934;DHT22;7560;51.364;12.384;2022-10-31T12:08:37;17.40;99.90
14934;DHT22;7560;51.364;12.384;2022-10-31T12:13:51;17.40;99.90
14934;DHT22;7560;51.364;12.384;2022-10-31T12:45:57;18.00;99.90
14934;DHT22;7560;51.364;12.384;2022-10-31T13:01:49;18.70;99.90
14934;DHT22;7560;51.364;12.384;2022-10-31T13:06:59;18.70;99.90
14934;DHT22;7560;51.364;12.384;2022-10-31T13:12:08;18.80;99.90
14934;DHT22;7560;51.364;12.384;2022-10-31T13:22:31;18.60;99.90
14934;DHT22;7560;51.364;12.384;2022-10-31T13:27:51;18.60;99.90
14934;DHT22;7560;51.364;12.384;2022-10-31T13:43:41;18.30;99.90
14934;DHT22;7560;51.364;12.384;2022-10-31T13:48:48;18.30;99.90
14934;DHT22;7560;51.364;12.384;2022-10-31T13:59:19;18.20;99.90
14934;DHT22;7560;51.364;12.384;2022-10-31T14:04:26;18.20;99.90
14934;DHT22;7560;51.364;12.384;2022-10-31T14:14:57;18.10;99.90
14934;DHT22;7560;51.364;12.384;2022-10-31T14:25:34;17.90;99.90
14934;DHT22;7560;51.364;12.384;2022-10-31T14:30:36;17.80;99.90
14934;DHT22;7560;51.364;12.384;2022-10-31T14:36:09;17.70;99.90
14934;DHT22;7560;51.364;12.384;2022-10-31T14:51:51;17.40;99.90
14934;DHT22;7560;51.364;12.384;2022-10-31T14:57:02;17.20;99.90
14934;DHT22;7560;51.364;12.384;2022-10-31T15:02:24;17.10;99.90
14934;DHT22;7560;51.364;12.384;2022-10-31T15:07:27;17.00;99.90
14934;DHT22;7560;51.364;12.384;2022-10-31T15:12:35;16.90;99.90
14934;DHT22;7560;51.364;12.384;2022-10-31T15:17:44;16.80;99.90
14934;DHT22;7560;51.364;12.384;2022-10-31T15:22:47;16.70;99.90
14934;DHT22;7560;51.364;12.384;2022-10-31T15:27:50;16.60;99.90
14934;DHT22;7560;51.364;12.384;2022-10-31T15:32:52;16.40;99.90
14934;DHT22;7560;51.364;12.384;2022-10-31T15:37:59;16.40;99.90
14934;DHT22;7560;51.364;12.384;2022-10-31T15:43:04;16.30;99.90
14934;DHT22;7560;51.364;12.384;2022-10-31T15:48:18;16.10;99.90
14934;DHT22;7560;51.364;12.384;2022-10-31T15:53:46;16.00;99.90
14934;DHT22;7560;51.364;12.384;2022-10-31T15:58:47;16.00;99.90
14934;DHT22;7560;51.364;12.384;2022-10-31T16:04:20;15.90;99.90
14934;DHT22;7560;51.364;12.384;2022-10-31T16:09:24;15.80;99.90
14934;DHT22;7560;51.364;12.384;2022-10-31T16:14:28;15.70;99.90
14934;DHT22;7560;51.364;12.384;2022-10-31T16:19:34;15.60;99.90
14934;DHT22;7560;51.364;12.384;2022-10-31T16:24:45;15.50;99.90
14934;DHT22;7560;51.364;12.384;2022-10-31T16:29:47;15.40;99.90
14934;DHT22;7560;51.364;12.384;2022-10-31T16:35:04;15.40;99.90
14934;DHT22;7560;51.364;12.384;2022-10-31T16:40:18;15.30;99.90
14934;DHT22;7560;51.364;12.384;2022-10-31T16:45:22;15.40;99.90
14934;DHT22;7560;51.364;12.384;2022-10-31T16:50:25;15.30;99.90
14934;DHT22;7560;51.364;12.384;2022-10-31T16:55:27;15.20;99.90
14934;DHT22;7560;51.364;12.384;2022-10-31T17:00:29;15.20;99.90
14934;DHT22;7560;51.364;12.384;2022-10-31T17:05:32;15.20;99.90
14934;DHT22;7560;51.364;12.384;2022-10-31T17:10:34;15.10;99.90
14934;DHT22;7560;51.364;12.384;2022-10-31T17:15:42;15.10;99.90
14934;DHT22;7560;51.364;12.384;2022-10-31T17:20:46;15.00;99.90
14934;DHT22;7560;51.364;12.384;2022-10-31T17:25:48;14.90;99.90
14934;DHT22;7560;51.364;12.384;2022-10-31T17:30:50;14.80;99.90
14934;DHT22;7560;51.364;12.384;2022-10-31T17:35:51;14.80;99.90
14934;DHT22;7560;51.364;12.384;2022-10-31T17:40:53;14.70;99.90
14934;DHT22;7560;51.364;12.384;2022-10-31T17:45:58;14.60;99.90
14934;DHT22;7560;51.364;12.384;2022-10-31T17:51:02;14.50;99.90
14934;DHT22;7560;51.364;12.384;2022-10-31T17:56:08;14.50;99.90
14934;DHT22;7560;51.364;12.384;2022-10-31T18:01:12;14.50;99.90
14934;DHT22;7560;51.364;12.384;2022-10-31T18:06:15;14.40;99.90
14934;DHT22;7560;51.364;12.384;2022-10-31T18:11:19;14.30;99.90
14934;DHT22;7560;51.364;12.384;2022-10-31T18:16:21;14.30;99.90
14934;DHT22;7560;51.364;12.384;2022-10-31T18:21:24;14.40;99.90
14934;DHT22;7560;51.364;12.384;2022-10-31T18:26:27;14.40;99.90
14934;DHT22;7560;51.364;12.384;2022-10-31T18:31:28;14.30;99.90
14934;DHT22;7560;51.364;12.384;2022-10-31T18:36:30;14.20;99.90
14934;DHT22;7560;51.364;12.384;2022-10-31T18:41:32;14.10;99.90
14934;DHT22;7560;51.364;12.384;2022-10-31T18:46:34;14.30;99.90
14934;DHT22;7560;51.364;12.384;2022-10-31T18:51:36;14.40;99.90
14934;DHT22;7560;51.364;12.384;2022-10-31T18:56:37;14.40;99.90
14934;DHT22;7560;51.364;12.384;2022-10-31T19:01:39;14.40;99.90
14934;DHT22;7560;51.364;12.384;2022-10-31T19:06:41;14.40;99.90
14934;DHT22;7560;51.364;12.384;2022-10-31T19:11:42;14.40;99.90
14934;DHT22;7560;51.364;12.384;2022-10-31T19:16:44;14.30;99.90
14934;DHT22;7560;51.364;12.384;2022-10-31T19:21:46;14.30;99.90
14934;DHT22;7560;51.364;12.384;2022-10-31T19:26:48;14.20;99.90
14934;DHT22;7560;51.364;12.384;2022-10-31T19:31:50;14.20;99.90
14934;DHT22;7560;51.364;12.384;2022-10-31T19:36:52;14.20;99.90
14934;DHT22;7560;51.364;12.384;2022-10-31T19:41:53;14.20;99.90
14934;DHT22;7560;51.364;12.384;2022-10-31T19:46:55;14.20;99.90
14934;DHT22;7560;51.364;12.384;2022-10-31T19:51:57;14.30;99.90
14934;DHT22;7560;51.364;12.384;2022-10-31T19:56:59;14.40;99.90
14934;DHT22;7560;51.364;12.384;2022-10-31T20:02:01;14.40;99.90
14934;DHT22;7560;51.364;12.384;2022-10-31T20:07:03;14.40;99.90
14934;DHT22;7560;51.364;12.384;2022-10-31T20:12:05;14.40;99.90
14934;DHT22;7560;51.364;12.384;2022-10-31T20:17:07;14.30;99.90
14934;DHT22;7560;51.364;12.384;2022-10-31T20:22:10;14.20;99.90
14934;DHT22;7560;51.364;12.384;2022-10-31T20:27:11;14.20;99.90
14934;DHT22;7560;51.364;12.384;2022-10-31T20:32:13;14.10;99.90
14934;DHT22;7560;51.364;12.384;2022-10-31T20:37:15;14.10;99.90
14934;DHT22;7560;51.364;12.384;2022-10-31T20:42:17;14.00;99.90
14934;DHT22;7560;51.364;12.384;2022-10-31T20:47:19;13.90;99.90
14934;DHT22;7560;51.364;12.384;2022-10-31T20:52:25;13.80;99.90
14934;DHT22;7560;51.364;12.384;2022-10-31T20:57:27;13.80;99.90
14934;DHT22;7560;51.364;12.384;2022-10-31T21:02:29;13.80;99.90
14934;DHT22;7560;51.364;12.384;2022-10-31T21:07:30;13.80;99.90
14934;DHT22;7560;51.364;12.384;2022-10-31T21:12:32;13.80;99.90
14934;DHT22;7560;51.364;12.384;2022-10-31T21:17:34;13.90;99.90
14934;DHT22;7560;51.364;12.384;2022-10-31T21:22:36;13.90;99.90
14934;DHT22;7560;51.364;12.384;2022-10-31T21:27:38;13.80;99.90
14934;DHT22;7560;51.364;12.384;2022-10-31T21:32:40;13.80;99.90
14934;DHT22;7560;51.364;12.384;2022-10-31T21:37:42;13.80;99.90
14934;DHT22;7560;51.364;12.384;2022-10-31T21:42:44;13.80;99.90
14934;DHT22;7560;51.364;12.384;2022-10-31T21:47:46;13.80;99.90
14934;DHT22;7560;51.364;12.384;2022-10-31T21:52:48;13.80;99.90
14934;DHT22;7560;51.364;12.384;2022-10-31T21:57:50;13.80;99.90
14934;DHT22;7560;51.364;12.384;2022-10-31T22:02:52;13.80;99.90
14934;DHT22;7560;51.364;12.384;2022-10-31T22:07:53;13.80;99.90
14934;DHT22;7560;51.364;12.384;2022-10-31T22:12:56;13.70;99.90
14934;DHT22;7560;51.364;12.384;2022-10-31T22:17:57;13.70;99.90
14934;DHT22;7560;51.364;12.384;2022-10-31T22:22:59;13.60;99.90
14934;DHT22;7560;51.364;12.384;2022-10-31T22:28:01;13.60;99.90
14934;DHT22;7560;51.364;12.384;2022-10-31T22:33:07;13.60;99.90
14934;DHT22;7560;51.364;12.384;2022-10-31T22:38:08;13.60;99.90
14934;DHT22;7560;51.364;12.384;2022-10-31T22:43:10;13.60;99.90
14934;DHT22;7560;51.364;12.384;2022-10-31T22:48:12;13.60;99.90
14934;DHT22;7560;51.364;12.384;2022-10-31T22:53:14;13.60;99.90
14934;DHT22;7560;51.364;12.384;2022-10-31T22:58:16;13.70;99.90
14934;DHT22;7560;51.364;12.384;2022-10-31T23:03:17;13.70;99.90
14934;DHT22;7560;51.364;12.384;2022-10-31T23:08:19;13.70;99.90
14934;DHT22;7560;51.364;12.384;2022-10-31T23:13:21;13.80;99.90
14934;DHT22;7560;51.364;12.384;2022-10-31T23:18:42;13.80;99.90
14934;DHT22;7560;51.364;12.384;2022-10-31T23:23:51;13.80;99.90
14934;DHT22;7560;51.364;12.384;2022-10-31T23:28:52;13.70;99.90
14934;DHT22;7560;51.364;12.384;2022-10-31T23:33:54;13.70;99.90
14934;DHT22;7560;51.364;12.384;2022-10-31T23:38:56;13.60;99.90
14934;DHT22;7560;51.364;12.384;2022-10-31T23:43:57;13.40;99.90
14934;DHT22;7560;51.364;12.384;2022-10-31T23:48:59;13.30;99.90
14934;DHT22;7560;51.364;12.384;2022-10-31T23:54:01;13.20;99.90
14934;DHT22;7560;51.364;12.384;2022-10-31T23:59:03;13.10;99.90
